createdAt,value
2019-04-16T00:01:50.992Z,15.30
2019-04-16T00:04:37.775Z,15.70
2019-04-16T00:07:24.687Z,15.63
2019-04-16T00:10:22.193Z,15.20
2019-04-16T00:13:22.078Z,14.50
2019-04-16T00:15:51.143Z,15.30
2019-04-16T00:18:20.205Z,15.80
2019-04-16T00:20:59.420Z,13.63
2019-04-16T00:23:47.372Z,14.00
2019-04-16T00:26:16.382Z,14.40
2019-04-16T00:28:45.426Z,14.40
2019-04-16T00:31:14.490Z,15.23
2019-04-16T00:33:43.876Z,14.03
2019-04-16T00:36:15.336Z,15.17
2019-04-16T00:38:43.708Z,15.23
2019-04-16T00:41:13.062Z,14.13
2019-04-16T00:43:44.143Z,14.40
2019-04-16T00:46:12.855Z,13.43
2019-04-16T00:48:41.910Z,14.53
2019-04-16T00:51:10.927Z,14.60
2019-04-16T00:53:39.983Z,15.10
2019-04-16T00:56:09.139Z,14.80
2019-04-16T00:58:38.190Z,14.83
2019-04-16T01:01:07.223Z,15.60
2019-04-16T01:03:36.271Z,15.10
2019-04-16T01:06:07.763Z,13.90
2019-04-16T01:08:36.127Z,14.37
2019-04-16T01:11:05.169Z,13.70
2019-04-16T01:13:34.517Z,15.23
2019-04-16T01:16:04.198Z,15.07
2019-04-16T01:18:33.190Z,15.67
2019-04-16T01:21:02.504Z,16.73
2019-04-16T01:23:31.502Z,14.67
2019-04-16T01:26:00.549Z,15.13
2019-04-16T01:28:32.699Z,14.77
2019-04-16T01:31:23.570Z,14.67
2019-04-16T01:34:27.167Z,15.53
2019-04-16T01:37:14.099Z,14.60
2019-04-16T01:39:47.437Z,15.47
2019-04-16T01:42:13.896Z,14.23
2019-04-16T01:44:42.975Z,14.27
2019-04-16T01:47:11.996Z,14.97
2019-04-16T01:49:42.231Z,14.40
2019-04-16T01:52:12.157Z,15.40
2019-04-16T01:54:41.171Z,14.23
2019-04-16T01:57:10.217Z,14.80
2019-04-16T01:59:39.252Z,14.40
2019-04-16T02:02:08.290Z,14.03
2019-04-16T02:04:37.306Z,13.37
2019-04-16T02:07:06.361Z,14.27
2019-04-16T02:09:35.743Z,14.13
2019-04-16T02:12:04.857Z,13.53
2019-04-16T02:14:33.866Z,14.50
2019-04-16T02:17:02.923Z,13.60
2019-04-16T02:19:32.992Z,13.93
2019-04-16T02:22:02.581Z,12.93
2019-04-16T02:24:31.650Z,13.40
2019-04-16T02:27:00.668Z,14.03
2019-04-16T02:29:30.545Z,14.23
2019-04-16T02:32:00.033Z,13.07
2019-04-16T02:34:29.104Z,14.53
2019-04-16T02:37:02.276Z,12.90
2019-04-16T02:39:46.994Z,12.60
2019-04-16T02:41:59.651Z,14.07
2019-04-16T02:44:28.709Z,12.60
2019-04-16T02:47:01.486Z,12.83
2019-04-16T02:49:28.519Z,12.73
2019-04-16T02:52:34.694Z,12.77
2019-04-16T02:55:22.736Z,13.73
2019-04-16T02:58:07.610Z,13.47
2019-04-16T03:00:55.766Z,12.77
2019-04-16T03:03:31.311Z,13.57
2019-04-16T03:06:01.034Z,14.27
2019-04-16T03:08:33.394Z,13.40
2019-04-16T03:11:02.027Z,12.37
2019-04-16T03:13:31.184Z,12.23
2019-04-16T03:16:18.409Z,13.07
2019-04-16T03:18:54.669Z,13.00
2019-04-16T03:21:24.484Z,14.30
2019-04-16T03:23:55.259Z,12.90
2019-04-16T03:26:24.271Z,12.97
2019-04-16T03:28:55.697Z,13.60
2019-04-16T03:31:24.085Z,13.70
2019-04-16T03:33:53.407Z,14.40
2019-04-16T03:36:22.425Z,14.47
2019-04-16T03:38:51.484Z,14.43
2019-04-16T03:41:20.497Z,14.77
2019-04-16T03:43:49.877Z,14.80
2019-04-16T03:46:18.902Z,14.53
2019-04-16T03:48:47.969Z,13.87
2019-04-16T03:51:17.343Z,13.13
2019-04-16T03:53:49.286Z,14.03
2019-04-16T03:56:17.176Z,14.33
2019-04-16T03:58:46.474Z,13.50
2019-04-16T04:01:15.821Z,14.10
2019-04-16T04:03:44.963Z,18.73
2019-04-16T04:06:14.037Z,16.03
2019-04-16T04:08:47.945Z,19.67
2019-04-16T04:11:13.796Z,19.70
2019-04-16T04:13:42.847Z,16.43
2019-04-16T04:16:11.856Z,16.10
2019-04-16T04:18:43.133Z,16.90
2019-04-16T04:21:11.658Z,15.93
2019-04-16T04:23:40.764Z,16.50
2019-04-16T04:26:10.257Z,16.67
2019-04-16T04:28:39.432Z,15.27
2019-04-16T04:31:08.439Z,17.33
2019-04-16T04:33:41.362Z,15.90
2019-04-16T04:36:10.372Z,15.83
2019-04-16T04:38:39.653Z,15.17
2019-04-16T04:41:09.124Z,15.27
2019-04-16T04:43:38.572Z,14.93
2019-04-16T04:46:12.944Z,14.77
2019-04-16T04:48:38.562Z,14.90
2019-04-16T04:51:08.725Z,16.60
2019-04-16T04:53:38.006Z,14.70
2019-04-16T04:56:07.016Z,14.20
2019-04-16T04:58:36.119Z,15.43
2019-04-16T05:01:05.143Z,15.17
2019-04-16T05:04:02.635Z,14.20
2019-04-16T05:06:35.338Z,14.70
2019-04-16T05:09:06.215Z,13.73
2019-04-16T05:11:35.282Z,14.20
2019-04-16T05:14:04.394Z,13.57
2019-04-16T05:16:34.348Z,14.57
2019-04-16T05:19:04.249Z,13.40
2019-04-16T05:21:33.262Z,13.13
2019-04-16T05:24:02.189Z,12.50
2019-04-16T05:26:33.532Z,12.33
2019-04-16T05:29:16.548Z,12.10
2019-04-16T05:31:43.007Z,12.40
2019-04-16T05:34:12.066Z,11.47
2019-04-16T05:36:46.208Z,10.60
2019-04-16T05:39:12.075Z,11.30
2019-04-16T05:41:41.081Z,12.03
2019-04-16T05:44:10.161Z,10.73
2019-04-16T05:46:41.773Z,12.17
2019-04-16T05:49:10.388Z,10.40
2019-04-16T05:51:39.443Z,11.73
2019-04-16T05:54:33.563Z,11.20
2019-04-16T05:57:02.712Z,10.97
2019-04-16T05:59:33.797Z,11.20
2019-04-16T06:02:10.772Z,10.50
2019-04-16T06:04:39.794Z,10.77
2019-04-16T06:07:08.840Z,10.60
2019-04-16T06:09:38.151Z,9.70
2019-04-16T06:12:08.751Z,9.60
2019-04-16T06:15:00.048Z,9.83
2019-04-16T06:17:42.764Z,11.17
2019-04-16T06:20:20.670Z,9.30
2019-04-16T06:23:03.890Z,9.50
2019-04-16T06:25:43.294Z,11.60
2019-04-16T06:28:32.285Z,11.00
2019-04-16T06:31:23.162Z,11.07
2019-04-16T06:34:10.220Z,11.27
2019-04-16T06:36:47.005Z,11.77
2019-04-16T06:39:35.050Z,12.07
2019-04-16T06:42:26.345Z,12.80
2019-04-16T06:44:57.080Z,14.07
2019-04-16T06:47:48.026Z,10.93
2019-04-16T06:50:42.205Z,11.53
2019-04-16T06:53:23.831Z,10.30
2019-04-16T06:56:08.592Z,12.03
2019-04-16T06:58:57.518Z,11.63
2019-04-16T07:01:36.711Z,11.90
2019-04-16T07:04:07.270Z,12.17
2019-04-16T07:07:07.998Z,10.50
2019-04-16T07:09:41.860Z,10.77
2019-04-16T07:12:16.100Z,11.70
2019-04-16T07:14:45.622Z,12.20
2019-04-16T07:17:18.010Z,12.40
2019-04-16T07:19:46.664Z,13.50
2019-04-16T07:22:20.687Z,14.03
2019-04-16T07:24:48.070Z,12.10
2019-04-16T07:27:20.084Z,12.93
2019-04-16T07:29:51.258Z,13.63
2019-04-16T07:32:51.705Z,13.37
2019-04-16T07:35:39.730Z,13.03
2019-04-16T07:38:15.058Z,12.33
2019-04-16T07:41:12.420Z,12.83
2019-04-16T07:44:04.458Z,12.77
2019-04-16T07:46:47.954Z,12.17
2019-04-16T07:49:59.065Z,13.47
2019-04-16T07:52:42.043Z,14.20
2019-04-16T07:55:28.069Z,12.90
2019-04-16T07:57:57.874Z,12.03
2019-04-16T08:00:26.952Z,11.30
2019-04-16T08:02:56.179Z,11.30
2019-04-16T08:05:27.796Z,13.87
2019-04-16T08:07:56.329Z,12.67
2019-04-16T08:10:25.332Z,13.20
2019-04-16T08:13:00.494Z,13.07
2019-04-16T08:15:29.660Z,11.87
2019-04-16T08:17:58.643Z,12.80
2019-04-16T08:20:27.653Z,12.43
2019-04-16T08:23:00.320Z,10.77
2019-04-16T08:25:33.874Z,13.60
2019-04-16T08:28:01.473Z,12.50
2019-04-16T08:30:34.630Z,11.73
2019-04-16T08:33:01.187Z,11.70
2019-04-16T08:35:30.114Z,11.70
2019-04-16T08:37:59.278Z,11.03
2019-04-16T08:40:28.289Z,11.03
2019-04-16T08:42:58.355Z,11.30
2019-04-16T08:45:27.737Z,12.27
2019-04-16T08:47:56.805Z,11.70
2019-04-16T08:50:26.797Z,13.77
2019-04-16T08:52:55.995Z,13.50
2019-04-16T08:55:25.032Z,13.47
2019-04-16T08:57:54.045Z,12.80
2019-04-16T09:00:23.273Z,13.40
2019-04-16T09:02:52.205Z,12.13
2019-04-16T09:05:21.224Z,13.07
2019-04-16T09:07:50.959Z,12.53
2019-04-16T09:10:23.752Z,11.33
2019-04-16T09:13:03.040Z,13.17
2019-04-16T09:15:27.353Z,11.23
2019-04-16T09:18:12.021Z,11.57
2019-04-16T09:20:42.347Z,12.57
2019-04-16T09:23:11.412Z,11.73
2019-04-16T09:26:12.056Z,10.67
2019-04-16T09:28:47.234Z,11.60
2019-04-16T09:31:34.055Z,11.93
2019-04-16T09:34:15.818Z,11.30
2019-04-16T09:37:15.678Z,12.30
2019-04-16T09:40:15.600Z,12.40
2019-04-16T09:42:33.755Z,13.53
2019-04-16T09:45:05.057Z,13.20
2019-04-16T09:47:33.702Z,13.77
2019-04-16T09:50:02.777Z,13.87
2019-04-16T09:52:31.640Z,14.87
2019-04-16T09:55:00.646Z,13.40
2019-04-16T09:57:31.438Z,13.47
2019-04-16T10:00:01.752Z,13.47
2019-04-16T10:02:33.462Z,13.77
2019-04-16T10:05:02.688Z,14.30
2019-04-16T10:07:31.777Z,12.40
2019-04-16T10:10:00.851Z,13.20
2019-04-16T10:12:29.910Z,14.47
2019-04-16T10:14:58.970Z,13.50
2019-04-16T10:17:28.048Z,12.83
2019-04-16T10:19:57.088Z,13.97
2019-04-16T10:22:26.829Z,13.13
2019-04-16T10:25:06.327Z,17.20
2019-04-16T10:27:57.201Z,14.20
2019-04-16T10:30:34.027Z,14.40
2019-04-16T10:33:03.101Z,14.13
2019-04-16T10:35:32.104Z,13.30
2019-04-16T10:38:06.097Z,13.17
2019-04-16T10:40:40.910Z,13.17
2019-04-16T10:43:27.888Z,12.57
2019-04-16T10:46:20.149Z,12.77
2019-04-16T10:49:17.510Z,11.83
2019-04-16T10:51:58.233Z,12.80
2019-04-16T10:54:37.390Z,12.17
2019-04-16T10:57:41.381Z,12.67
2019-04-16T11:00:41.667Z,13.93
2019-04-16T11:03:15.258Z,11.80
2019-04-16T11:05:56.802Z,12.80
2019-04-16T11:08:22.837Z,12.93
2019-04-16T11:10:51.836Z,12.90
2019-04-16T11:13:33.338Z,13.30
2019-04-16T11:16:14.882Z,13.10
2019-04-16T11:18:43.911Z,13.30
2019-04-16T11:21:13.053Z,12.43
2019-04-16T11:23:42.143Z,12.40
2019-04-16T11:26:11.156Z,12.97
2019-04-16T11:28:40.186Z,12.63
2019-04-16T11:31:14.910Z,11.80
2019-04-16T11:33:43.943Z,12.47
2019-04-16T11:36:19.869Z,12.57
2019-04-16T11:38:43.738Z,13.43
2019-04-16T11:41:13.154Z,12.63
2019-04-16T11:43:42.242Z,13.00
2019-04-16T11:46:11.614Z,12.80
2019-04-16T11:48:40.941Z,12.20
2019-04-16T11:51:10.094Z,14.77
2019-04-16T11:53:39.223Z,12.83
2019-04-16T11:56:08.229Z,13.37
2019-04-16T11:58:44.849Z,12.27
2019-04-16T12:01:32.822Z,11.73
2019-04-16T12:04:26.689Z,11.33
2019-04-16T12:07:09.671Z,12.07
2019-04-16T12:10:12.866Z,11.87
2019-04-16T12:12:53.233Z,11.77
2019-04-16T12:15:59.661Z,11.50
2019-04-16T12:18:47.716Z,11.80
2019-04-16T12:21:30.225Z,12.50
2019-04-16T12:24:11.423Z,12.40
2019-04-16T12:26:58.055Z,12.97
2019-04-16T12:29:46.048Z,11.40
2019-04-16T12:32:29.005Z,12.40
2019-04-16T12:35:20.091Z,12.40
2019-04-16T12:38:18.181Z,12.00
2019-04-16T12:40:51.454Z,12.60
2019-04-16T12:43:34.956Z,12.90
2019-04-16T12:46:20.605Z,12.67
2019-04-16T12:49:07.216Z,13.07
2019-04-16T12:51:53.594Z,12.57
2019-04-16T12:54:46.592Z,13.70
2019-04-16T12:57:33.601Z,12.10
2019-04-16T13:00:27.331Z,12.00
2019-04-16T13:03:20.582Z,12.80
2019-04-16T13:06:07.236Z,15.20
2019-04-16T13:09:07.686Z,11.90
2019-04-16T13:12:01.950Z,13.60
2019-04-16T13:15:00.781Z,14.03
2019-04-16T13:17:44.698Z,14.30
2019-04-16T13:20:39.796Z,12.83
2019-04-16T13:23:18.833Z,13.77
2019-04-16T13:25:58.120Z,13.50
2019-04-16T13:28:27.365Z,16.03
2019-04-16T13:30:56.386Z,14.07
2019-04-16T13:33:25.359Z,14.57
2019-04-16T13:35:54.422Z,13.70
2019-04-16T13:38:24.738Z,18.67
2019-04-16T13:40:54.184Z,13.93
2019-04-16T13:43:27.366Z,13.40
2019-04-16T13:45:58.159Z,14.10
2019-04-16T13:48:34.068Z,14.77
2019-04-16T13:51:06.990Z,14.60
2019-04-16T13:54:00.840Z,15.63
2019-04-16T13:56:51.562Z,15.50
2019-04-16T13:59:31.052Z,14.87
2019-04-16T14:02:11.165Z,15.30
2019-04-16T14:04:40.182Z,14.43
2019-04-16T14:07:09.221Z,15.27
2019-04-16T14:09:38.235Z,15.63
2019-04-16T14:12:07.437Z,15.90
2019-04-16T14:14:36.533Z,14.70
2019-04-16T14:17:10.295Z,15.97
2019-04-16T14:19:37.890Z,17.13
2019-04-16T14:22:07.508Z,15.50
2019-04-16T14:24:36.484Z,14.53
2019-04-16T14:27:06.303Z,16.53
2019-04-16T14:29:35.864Z,14.63
2019-04-16T14:32:06.115Z,16.20
2019-04-16T14:34:42.435Z,15.13
2019-04-16T14:37:11.608Z,14.37
2019-04-16T14:39:44.210Z,15.17
2019-04-16T14:42:13.313Z,17.43
2019-04-16T14:44:49.466Z,13.60
2019-04-16T14:47:18.590Z,15.80
2019-04-16T14:49:50.235Z,13.77
2019-04-16T14:52:18.477Z,14.90
2019-04-16T14:54:52.639Z,14.40
2019-04-16T14:57:21.655Z,14.07
2019-04-16T15:00:11.471Z,14.00
2019-04-16T15:03:02.530Z,13.77
2019-04-16T15:05:38.851Z,14.23
2019-04-16T15:08:26.843Z,13.37
2019-04-16T15:11:29.979Z,15.43
2019-04-16T15:14:17.065Z,14.37
2019-04-16T15:17:05.517Z,13.80
2019-04-16T15:19:38.175Z,13.97
2019-04-16T15:22:25.007Z,14.83
2019-04-16T15:25:12.192Z,13.70
2019-04-16T15:27:55.121Z,13.53
2019-04-16T15:30:42.365Z,15.13
2019-04-16T15:33:45.990Z,13.20
2019-04-16T15:36:19.512Z,12.87
2019-04-16T15:39:10.658Z,14.33
2019-04-16T15:42:04.344Z,13.80
2019-04-16T15:44:38.487Z,14.77
2019-04-16T15:47:25.655Z,14.73
2019-04-16T15:49:58.777Z,14.30
2019-04-16T15:52:49.565Z,13.13
2019-04-16T15:55:37.599Z,15.03
2019-04-16T15:58:23.615Z,14.37
2019-04-16T16:01:11.643Z,14.50
2019-04-16T16:03:58.267Z,14.07
2019-04-16T16:06:28.602Z,15.00
2019-04-16T16:09:14.390Z,12.67
2019-04-16T16:12:14.706Z,15.57
2019-04-16T16:14:43.754Z,14.53
2019-04-16T16:17:13.016Z,17.63
2019-04-16T16:19:42.027Z,14.30
2019-04-16T16:22:12.130Z,11.40
2019-04-16T16:24:42.314Z,12.77
2019-04-16T16:27:12.053Z,12.93
2019-04-16T16:29:41.063Z,13.47
2019-04-16T16:32:10.122Z,19.43
2019-04-16T16:34:39.151Z,12.30
2019-04-16T16:37:08.200Z,12.20
2019-04-16T16:39:37.225Z,13.43
2019-04-16T16:42:06.282Z,11.93
2019-04-16T16:44:35.313Z,13.20
2019-04-16T16:47:10.134Z,12.77
2019-04-16T16:49:39.054Z,14.40
2019-04-16T16:52:36.657Z,12.50
2019-04-16T16:55:08.317Z,12.40
2019-04-16T16:57:42.634Z,12.50
2019-04-16T17:00:33.727Z,12.43
2019-04-16T17:03:12.927Z,14.53
2019-04-16T17:05:42.377Z,12.00
2019-04-16T17:08:11.418Z,11.83
2019-04-16T17:10:42.372Z,13.77
2019-04-16T17:13:14.601Z,13.63
2019-04-16T17:15:42.006Z,12.30
2019-04-16T17:18:11.057Z,13.47
2019-04-16T17:20:41.343Z,12.87
2019-04-16T17:23:10.827Z,12.53
2019-04-16T17:25:39.865Z,13.17
2019-04-16T17:28:08.903Z,12.60
2019-04-16T17:30:37.960Z,13.80
2019-04-16T17:33:07.647Z,13.13
2019-04-16T17:35:36.970Z,12.43
2019-04-16T17:38:06.887Z,15.70
2019-04-16T17:40:51.107Z,13.53
2019-04-16T17:43:27.094Z,15.03
2019-04-16T17:46:17.887Z,13.13
2019-04-16T17:48:58.790Z,13.70
2019-04-16T17:51:39.325Z,14.03
2019-04-16T17:54:24.121Z,12.67
2019-04-16T17:57:12.987Z,12.43
2019-04-16T17:59:48.797Z,12.60
2019-04-16T18:02:35.400Z,13.00
2019-04-16T18:05:23.431Z,14.87
2019-04-16T18:08:08.238Z,13.80
2019-04-16T18:11:09.966Z,16.13
2019-04-16T18:13:55.311Z,14.10
2019-04-16T18:16:33.533Z,16.13
2019-04-16T18:19:07.796Z,15.97
2019-04-16T18:21:45.099Z,14.93
2019-04-16T18:24:36.987Z,15.33
2019-04-16T18:27:30.914Z,14.93
2019-04-16T18:30:16.626Z,14.47
2019-04-16T18:33:07.511Z,15.90
2019-04-16T18:35:55.681Z,15.10
2019-04-16T18:39:01.227Z,14.93
2019-04-16T18:41:37.447Z,14.20
2019-04-16T18:44:28.989Z,14.57
2019-04-16T18:47:13.963Z,14.93
2019-04-16T18:49:43.504Z,16.57
2019-04-16T18:52:12.833Z,13.93
2019-04-16T18:54:42.278Z,16.77
2019-04-16T18:57:11.529Z,16.07
2019-04-16T18:59:41.057Z,15.53
2019-04-16T19:02:10.677Z,15.00
2019-04-16T19:04:39.762Z,14.83
2019-04-16T19:07:08.819Z,15.37
2019-04-16T19:09:37.828Z,15.87
2019-04-16T19:12:07.017Z,18.80
2019-04-16T19:14:36.649Z,17.77
2019-04-16T19:17:06.209Z,18.73
2019-04-16T19:19:35.148Z,19.33
2019-04-16T19:22:04.398Z,20.30
2019-04-16T19:24:33.740Z,18.23
2019-04-16T19:27:02.867Z,19.03
2019-04-16T19:29:31.853Z,19.03
2019-04-16T19:32:00.977Z,18.63
2019-04-16T19:34:30.321Z,18.37
2019-04-16T19:37:00.811Z,17.70
2019-04-16T19:39:30.165Z,18.33
2019-04-16T19:41:59.227Z,22.03
2019-04-16T19:44:28.226Z,19.30
2019-04-16T19:46:57.301Z,18.50
2019-04-16T19:49:26.305Z,19.80
2019-04-16T19:51:55.355Z,21.50
2019-04-16T19:54:24.718Z,19.20
2019-04-16T19:56:53.783Z,18.87
2019-04-16T19:59:22.802Z,19.03
2019-04-16T20:01:51.825Z,18.70
2019-04-16T20:04:20.871Z,17.10
2019-04-16T20:06:49.885Z,20.23
2019-04-16T20:09:19.307Z,18.30
2019-04-16T20:11:48.314Z,18.33
2019-04-16T20:14:17.326Z,19.73
2019-04-16T20:16:46.333Z,18.83
2019-04-16T20:19:15.389Z,19.00
2019-04-16T20:21:44.441Z,19.10
2019-04-16T20:24:13.464Z,20.80
2019-04-16T20:26:42.797Z,20.20
2019-04-16T20:29:12.206Z,18.30
2019-04-16T20:31:41.223Z,18.73
2019-04-16T20:34:12.611Z,18.53
2019-04-16T20:36:41.150Z,18.03
2019-04-16T20:39:10.149Z,18.57
2019-04-16T20:41:39.213Z,18.07
2019-04-16T20:44:09.312Z,17.43
2019-04-16T20:46:38.517Z,17.37
2019-04-16T20:49:10.618Z,17.57
2019-04-16T20:51:38.998Z,16.67
2019-04-16T20:54:12.866Z,17.37
2019-04-16T20:56:40.673Z,17.97
2019-04-16T20:59:09.517Z,16.33
2019-04-16T21:01:38.571Z,16.70
2019-04-16T21:04:07.610Z,15.57
2019-04-16T21:06:40.812Z,16.13
2019-04-16T21:09:08.365Z,16.57
2019-04-16T21:11:41.168Z,15.90
2019-04-16T21:14:09.449Z,15.70
2019-04-16T21:16:38.395Z,15.70
2019-04-16T21:19:22.104Z,17.37
2019-04-16T21:21:38.297Z,15.10
2019-04-16T21:24:08.566Z,15.83
2019-04-16T21:26:38.206Z,16.57
2019-04-16T21:29:17.198Z,15.87
2019-04-16T21:31:49.730Z,15.90
2019-04-16T21:34:32.509Z,14.57
2019-04-16T21:37:19.628Z,19.10
2019-04-16T21:39:52.886Z,16.30
2019-04-16T21:42:21.891Z,17.27
2019-04-16T21:44:50.941Z,16.20
2019-04-16T21:47:23.135Z,17.20
2019-04-16T21:49:50.770Z,17.17
2019-04-16T21:52:23.226Z,17.20
2019-04-16T21:54:50.569Z,18.17
2019-04-16T21:57:19.930Z,19.47
2019-04-16T21:59:50.246Z,18.43
2019-04-16T22:02:24.779Z,18.70
2019-04-16T22:04:53.826Z,19.00
2019-04-16T22:07:24.632Z,17.07
2019-04-16T22:09:53.939Z,19.10
2019-04-16T22:12:22.981Z,17.67
2019-04-16T22:14:54.251Z,18.70
2019-04-16T22:17:22.796Z,19.53
2019-04-16T22:19:54.348Z,21.23
2019-04-16T22:22:22.594Z,17.83
2019-04-16T22:24:54.818Z,17.63
2019-04-16T22:27:23.061Z,17.70
2019-04-16T22:29:52.006Z,18.67
2019-04-16T22:32:21.038Z,18.73
2019-04-16T22:34:50.463Z,18.47
2019-04-16T22:37:19.472Z,18.40
2019-04-16T22:40:07.519Z,17.50
2019-04-16T22:43:07.001Z,17.67
2019-04-16T22:45:54.785Z,18.97
2019-04-16T22:48:23.722Z,17.37
2019-04-16T22:50:52.652Z,19.27
2019-04-16T22:53:21.637Z,18.13
2019-04-16T22:55:56.397Z,18.10
2019-04-16T22:58:25.056Z,18.53
2019-04-16T23:00:59.455Z,17.73
2019-04-16T23:03:28.796Z,18.40
2019-04-16T23:06:00.901Z,17.53
2019-04-16T23:08:28.593Z,18.20
2019-04-16T23:10:57.605Z,18.80
2019-04-16T23:13:32.271Z,17.60
2019-04-16T23:15:58.259Z,19.17
2019-04-16T23:18:27.627Z,15.97
2019-04-16T23:20:57.281Z,17.30
2019-04-16T23:23:26.265Z,17.40
2019-04-16T23:25:59.003Z,17.17
2019-04-16T23:28:26.732Z,17.07
2019-04-16T23:30:55.778Z,17.80
2019-04-16T23:33:24.791Z,17.27
2019-04-16T23:35:53.816Z,18.50
2019-04-16T23:38:22.830Z,18.37
2019-04-16T23:40:52.134Z,20.13
2019-04-16T23:43:34.060Z,17.67
2019-04-16T23:46:22.057Z,17.80
2019-04-16T23:49:03.396Z,16.90
2019-04-16T23:51:39.654Z,16.87
2019-04-16T23:54:18.521Z,20.07
2019-04-16T23:56:54.264Z,16.90
2019-04-16T23:59:42.227Z,17.57
